Time,TemperatureF,DewpointF,PressureIn,WindDirection,WindDirectionDegrees,WindSpeedMPH,WindSpeedGustMPH,Humidity,HourlyPrecipIn,Conditions,Clouds,dailyrainin,SoftwareType,DateUTC
2013-10-23 00:05:00,35.8,28.4,29.98,NNW,346,0.7,2.0,66,0.00,NA,NA,0.00,meteo_script,2013-10-23 05:05:00,
2013-10-23 00:35:00,34.7,27.7,29.99,North,0,2.3,5.0,67,0.00,NA,NA,0.00,meteo_script,2013-10-23 05:35:00,
2013-10-23 01:05:00,34.0,27.5,29.99,North,358,1.1,3.0,69,0.00,NA,NA,0.00,meteo_script,2013-10-23 06:05:00,
2013-10-23 01:35:00,33.6,27.1,29.99,North,0,2.8,6.0,69,0.00,NA,NA,0.00,meteo_script,2013-10-23 06:35:00,
2013-10-23 02:05:00,33.3,26.8,29.99,North,0,1.1,3.0,69,0.00,NA,NA,0.00,meteo_script,2013-10-23 07:05:00,
2013-10-23 02:35:00,32.8,26.6,30.00,North,0,2.0,4.0,70,0.00,NA,NA,0.00,meteo_script,2013-10-23 07:35:00,
2013-10-23 03:05:00,32.4,26.4,29.98,North,0,3.4,5.0,71,0.00,NA,NA,0.00,meteo_script,2013-10-23 08:05:00,
2013-10-23 03:35:00,32.5,26.6,29.99,North,0,0.0,0.0,71,0.00,NA,NA,0.00,meteo_script,2013-10-23 08:35:00,
2013-10-23 04:05:00,32.2,26.5,29.99,WNW,293,1.4,2.0,72,0.00,NA,NA,0.00,meteo_script,2013-10-23 09:05:00,
2013-10-23 04:35:00,31.9,26.2,29.99,NW,310,0.5,1.0,72,0.00,NA,NA,0.00,meteo_script,2013-10-23 09:35:00,
2013-10-23 05:05:00,31.7,26.0,29.98,NW,308,0.1,1.0,72,0.00,NA,NA,0.00,meteo_script,2013-10-23 10:05:00,
2013-10-23 05:35:00,31.3,25.9,29.99,WSW,257,2.0,4.0,73,0.00,NA,NA,0.00,meteo_script,2013-10-23 10:35:00,
2013-10-23 06:05:00,31.1,25.7,29.99,WSW,257,0.6,1.0,73,0.00,NA,NA,0.00,meteo_script,2013-10-23 11:05:00,
2013-10-23 06:35:00,30.8,25.6,30.00,WSW,258,0.7,2.0,74,0.00,NA,NA,0.00,meteo_script,2013-10-23 11:35:00,
2013-10-23 07:05:00,30.5,25.3,30.00,WSW,258,1.3,3.0,74,0.00,NA,NA,0.00,meteo_script,2013-10-23 12:05:00,
2013-10-23 07:35:00,30.4,25.2,30.00,West,273,0.6,3.0,74,0.00,NA,NA,0.00,meteo_script,2013-10-23 12:35:00,
2013-10-23 08:05:00,30.3,25.4,30.01,West,272,1.0,3.0,75,0.00,NA,NA,0.00,meteo_script,2013-10-23 13:05:00,
2013-10-23 08:35:00,30.7,25.7,30.01,West,273,0.5,2.0,75,0.00,NA,NA,0.00,meteo_script,2013-10-23 13:35:00,
2013-10-23 09:05:00,32.2,27.0,30.02,West,272,1.8,5.0,74,0.00,NA,NA,0.00,meteo_script,2013-10-23 14:05:00,
2013-10-23 09:35:00,33.6,27.8,30.02,West,272,1.4,4.0,72,0.00,NA,NA,0.00,meteo_script,2013-10-23 14:35:00,
2013-10-23 10:05:00,34.9,28.2,30.04,West,272,0.3,1.0,68,0.00,NA,NA,0.00,meteo_script,2013-10-23 15:05:00,
2013-10-23 10:35:00,35.9,28.8,30.03,NNW,348,0.1,1.0,67,0.00,NA,NA,0.00,meteo_script,2013-10-23 15:35:00,
2013-10-23 11:05:00,37.5,29.2,30.04,West,259,1.2,3.0,63,0.00,NA,NA,0.00,meteo_script,2013-10-23 16:05:00,
2013-10-23 11:35:00,39.5,29.9,30.03,West,280,1.6,4.0,59,0.00,NA,NA,0.00,meteo_script,2013-10-23 16:35:00,
2013-10-23 12:05:00,41.5,29.3,30.03,West,264,0.8,2.0,51,0.00,NA,NA,0.00,meteo_script,2013-10-23 17:05:00,
2013-10-23 12:35:00,42.9,29.1,30.02,North,353,0.2,1.0,46,0.00,NA,NA,0.00,meteo_script,2013-10-23 17:35:00,
2013-10-23 13:05:00,43.8,28.6,30.02,West,269,0.7,3.0,43,0.00,NA,NA,0.00,meteo_script,2013-10-23 18:05:00,
2013-10-23 13:35:00,44.2,28.3,30.01,West,275,1.0,5.0,42,0.00,NA,NA,0.00,meteo_script,2013-10-23 18:35:00,
2013-10-23 14:05:00,44.3,28.2,30.01,West,275,0.8,3.0,41,0.00,NA,NA,0.00,meteo_script,2013-10-23 19:05:00,
2013-10-23 14:35:00,43.2,28.7,30.00,North,0,0.0,0.0,45,0.00,NA,NA,0.00,meteo_script,2013-10-23 19:35:00,
2013-10-23 15:05:00,42.5,29.8,30.00,WNW,289,0.5,4.0,50,0.00,NA,NA,0.00,meteo_script,2013-10-23 20:05:00,
2013-10-23 15:35:00,41.7,28.3,30.00,West,280,3.1,6.0,47,0.00,NA,NA,0.00,meteo_script,2013-10-23 20:35:00,
2013-10-23 16:05:00,41.0,29.8,30.02,West,271,0.4,2.0,54,0.00,NA,NA,0.00,meteo_script,2013-10-23 21:05:00,
2013-10-23 16:35:00,41.0,30.1,30.02,West,266,2.6,5.0,55,0.00,NA,NA,0.00,meteo_script,2013-10-23 21:35:00,
2013-10-23 17:05:00,39.5,30.8,30.02,West,262,2.2,5.0,61,0.00,NA,NA,0.00,meteo_script,2013-10-23 22:05:00,
2013-10-23 17:35:00,39.3,30.6,30.02,West,261,2.7,5.0,62,0.00,NA,NA,0.00,meteo_script,2013-10-23 22:35:00,
2013-10-23 18:05:00,39.2,29.4,30.03,West,269,0.9,3.0,58,0.00,NA,NA,0.00,meteo_script,2013-10-23 23:05:00,
2013-10-23 18:35:00,38.9,29.2,30.03,West,267,0.1,1.0,58,0.00,NA,NA,0.00,meteo_script,2013-10-23 23:35:00,
2013-10-23 19:05:00,38.6,29.4,30.03,West,267,0.3,2.0,60,0.00,NA,NA,0.00,meteo_script,2013-10-24 00:05:00,
2013-10-23 19:35:00,38.3,29.1,30.03,West,267,1.7,3.0,60,0.00,NA,NA,0.00,meteo_script,2013-10-24 00:35:00,
2013-10-23 20:05:00,38.0,28.8,30.03,West,268,0.2,1.0,60,0.00,NA,NA,0.00,meteo_script,2013-10-24 01:05:00,
2013-10-23 20:35:00,37.7,28.1,30.04,West,268,0.9,2.0,58,0.00,NA,NA,0.00,meteo_script,2013-10-24 01:35:00,
2013-10-23 21:05:00,37.6,27.9,30.04,North,0,0.0,0.0,58,0.00,NA,NA,0.00,meteo_script,2013-10-24 02:05:00,
2013-10-23 21:35:00,37.4,27.9,30.04,West,267,0.6,1.0,58,0.00,NA,NA,0.00,meteo_script,2013-10-24 02:35:00,
2013-10-23 22:05:00,37.3,27.4,30.04,West,267,0.8,2.0,57,0.00,NA,NA,0.00,meteo_script,2013-10-24 03:05:00,
2013-10-23 22:35:00,37.0,27.5,30.04,North,0,0.0,0.0,58,0.00,NA,NA,0.00,meteo_script,2013-10-24 03:35:00,
2013-10-23 23:05:00,37.0,27.8,30.04,West,275,0.6,2.0,59,0.00,NA,NA,0.00,meteo_script,2013-10-24 04:05:00,
2013-10-23 23:35:00,36.9,27.2,30.05,WNW,297,0.9,2.0,58,0.00,NA,NA,0.00,meteo_script,2013-10-24 04:35:00,